createdAt,value
2022-11-01T00:03:17.882Z,102132.41
2022-11-01T00:08:19.913Z,102140.44
2022-11-01T00:13:21.919Z,102150.16
2022-11-01T00:18:24.678Z,102146.66
2022-11-01T00:23:26.659Z,102164.44
2022-11-01T00:28:29.263Z,102158.38
2022-11-01T00:33:31.386Z,102167.28
2022-11-01T00:38:33.946Z,102158.38
2022-11-01T00:43:36.718Z,102153.00
2022-11-01T00:48:38.801Z,102149.47
2022-11-01T00:53:41.106Z,102148.50
2022-11-01T00:58:43.048Z,102156.66
2022-11-01T01:03:44.992Z,102170.94
2022-11-01T01:08:46.967Z,102154.84
2022-11-01T01:13:48.977Z,102155.69
2022-11-01T01:18:50.964Z,102154.84
2022-11-01T01:23:54.980Z,102155.81
2022-11-01T01:28:57.002Z,102161.06
2022-11-01T01:33:59.024Z,102159.47
2022-11-01T01:39:01.170Z,102160.22
2022-11-01T01:44:03.777Z,102158.50
2022-11-01T01:49:05.731Z,102150.44
2022-11-01T01:54:07.719Z,102165.69
2022-11-01T01:59:11.050Z,102167.66
2022-11-01T02:04:19.528Z,102161.44
2022-11-01T02:09:21.977Z,102155.81
2022-11-01T02:14:26.200Z,102150.44
2022-11-01T02:19:41.441Z,102153.25
2022-11-01T02:25:11.284Z,102157.78
2022-11-01T02:30:20.733Z,102155.09
2022-11-01T02:35:34.784Z,102146.19
2022-11-01T02:40:48.828Z,102142.53
2022-11-01T02:45:51.414Z,102144.34
2022-11-01T02:50:56.981Z,102130.25
2022-11-01T02:55:59.082Z,102127.25
2022-11-01T03:01:01.132Z,102136.31
2022-11-01T03:06:16.329Z,102135.59
2022-11-01T03:11:21.073Z,102138.13
2022-11-01T03:16:31.845Z,102132.78
2022-11-01T03:21:59.105Z,102137.44
2022-11-01T03:27:02.893Z,102143.50
2022-11-01T03:32:07.070Z,102145.34
2022-11-01T03:37:12.710Z,102139.13
2022-11-01T03:42:19.422Z,102146.34
2022-11-01T03:47:21.577Z,102138.28
2022-11-01T03:52:23.735Z,102135.59
2022-11-01T03:57:25.651Z,102131.06
2022-11-01T04:02:27.667Z,102122.19
2022-11-01T04:07:29.608Z,102114.97
2022-11-01T04:12:31.693Z,102083.78
2022-11-01T04:17:52.424Z,102096.34
2022-11-01T04:22:54.708Z,102099.03
2022-11-01T04:27:57.082Z,102099.03
2022-11-01T04:32:59.374Z,102110.59
2022-11-01T04:38:01.843Z,102096.03
2022-11-01T04:43:04.601Z,102111.47
2022-11-01T04:48:16.103Z,102115.13
2022-11-01T04:53:18.117Z,102111.47
2022-11-01T04:58:20.117Z,102112.44
2022-11-01T05:03:22.087Z,102133.91
2022-11-01T05:08:24.324Z,102133.91
2022-11-01T05:13:26.326Z,102135.72
2022-11-01T05:18:29.563Z,102122.31
2022-11-01T05:23:31.459Z,102117.06
2022-11-01T05:28:33.619Z,102125.00
2022-11-01T05:33:35.588Z,102120.63
2022-11-01T05:38:37.708Z,102134.88
2022-11-01T05:43:39.829Z,102142.06
2022-11-01T05:48:42.155Z,102126.97
2022-11-01T05:53:44.237Z,102117.94
2022-11-01T05:58:47.352Z,102131.34
2022-11-01T06:03:50.552Z,102126.09
2022-11-01T06:08:52.578Z,102159.03
2022-11-01T06:13:56.237Z,102157.31
2022-11-01T06:18:58.230Z,102158.16
2022-11-01T06:24:00.207Z,102165.38
2022-11-01T06:29:03.704Z,102183.28
2022-11-01T06:34:06.056Z,102176.22
2022-11-01T06:39:08.133Z,102191.22
2022-11-01T06:44:10.166Z,102183.19
2022-11-01T06:49:16.346Z,102194.03
2022-11-01T06:54:21.248Z,102202.94
2022-11-01T06:59:23.842Z,102211.84
2022-11-01T07:04:27.772Z,102223.41
2022-11-01T07:09:29.743Z,102235.13
2022-11-01T07:14:31.966Z,102242.31
2022-11-01T07:19:33.875Z,102242.31
2022-11-01T07:24:35.904Z,102247.69
2022-11-01T07:29:39.533Z,102257.44
2022-11-01T07:34:41.520Z,102252.19
2022-11-01T07:39:43.441Z,102261.94
2022-11-01T07:44:45.993Z,102264.75
2022-11-01T07:49:48.381Z,102254.88
2022-11-01T07:54:50.444Z,102262.06
2022-11-01T07:59:52.416Z,102276.34
2022-11-01T08:04:54.762Z,102272.81
2022-11-01T08:09:56.801Z,102270.13
2022-11-01T08:14:58.797Z,102282.56
2022-11-01T08:20:01.017Z,102274.50
2022-11-01T08:25:03.077Z,102276.34
2022-11-01T08:30:05.547Z,102286.22
2022-11-01T08:35:08.884Z,102278.16
2022-11-01T08:40:11.116Z,102284.66
2022-11-01T08:45:13.970Z,102275.50
2022-11-01T08:50:17.970Z,102272.81
2022-11-01T08:55:20.222Z,102276.22
2022-11-01T09:00:22.320Z,102279.03
2022-11-01T09:05:24.352Z,102277.19
2022-11-01T09:10:27.108Z,102275.50
2022-11-01T09:15:29.275Z,102284.41
2022-11-01T09:20:31.297Z,102287.94
2022-11-01T09:25:33.252Z,102285.13
2022-11-01T09:30:36.972Z,102295.00
2022-11-01T09:35:40.970Z,102292.84
2022-11-01T09:40:46.996Z,102315.63
2022-11-01T09:45:52.701Z,102318.28
2022-11-01T09:50:55.356Z,102328.91
2022-11-01T09:56:22.860Z,102332.56
2022-11-01T10:01:39.019Z,102332.44
2022-11-01T10:07:05.537Z,102340.50
2022-11-01T10:12:15.192Z,102351.06
2022-11-01T10:17:27.842Z,102342.22
2022-11-01T10:22:37.000Z,102335.84
2022-11-01T10:27:59.754Z,102325.97
2022-11-01T10:33:29.725Z,102328.78
2022-11-01T10:44:07.017Z,102325.97
2022-11-01T10:49:24.512Z,102314.53
2022-11-01T10:54:30.219Z,102305.47
2022-11-01T10:59:38.217Z,102300.09
2022-11-01T11:04:40.198Z,102306.31
2022-11-01T11:09:42.359Z,102296.44
2022-11-01T11:14:48.339Z,102287.41
2022-11-01T11:19:52.665Z,102273.16
2022-11-01T11:24:59.049Z,102267.78
2022-11-01T11:30:05.568Z,102274.00
2022-11-01T11:35:19.556Z,102272.28
2022-11-01T11:40:24.077Z,102264.84
2022-11-01T11:45:31.281Z,102264.97
2022-11-01T11:50:34.644Z,102266.41
2022-11-01T11:55:39.578Z,102268.50
2022-11-01T12:00:46.220Z,102272.06
2022-11-01T12:05:54.672Z,102264.97
2022-11-01T12:10:58.714Z,102264.72
2022-11-01T12:16:24.902Z,102256.81
2022-11-01T12:21:41.513Z,102251.44
2022-11-01T12:26:44.734Z,102246.78
2022-11-01T12:31:48.920Z,102240.59
2022-11-01T12:36:54.733Z,102231.69
2022-11-01T12:42:04.052Z,102235.06
2022-11-01T12:47:24.003Z,102238.03
2022-11-01T12:52:33.111Z,102226.16
2022-11-01T12:57:35.618Z,102230.56
2022-11-01T13:02:37.506Z,102227.88
2022-11-01T13:07:39.432Z,102224.31
2022-11-01T13:12:49.848Z,102232.25
2022-11-01T13:18:17.148Z,102233.22
2022-11-01T13:23:24.906Z,102232.25
2022-11-01T13:28:44.996Z,102224.09
2022-11-01T13:34:03.702Z,102221.41
2022-11-01T13:39:27.488Z,102216.03
2022-11-01T13:44:34.915Z,102217.00
2022-11-01T13:49:47.595Z,102222.25
2022-11-01T13:55:24.068Z,102225.06
2022-11-01T14:00:36.782Z,102221.81
2022-11-01T14:05:39.708Z,102226.66
2022-11-01T14:10:47.016Z,102221.28
2022-11-01T14:15:55.182Z,102219.56
2022-11-01T14:20:57.843Z,102225.78
2022-11-01T14:26:18.631Z,102249.94
2022-11-01T14:31:24.191Z,102250.78
2022-11-01T14:36:29.428Z,102250.78
2022-11-01T14:41:36.320Z,102242.75
2022-11-01T14:46:46.597Z,102240.59
2022-11-01T14:51:55.725Z,102252.63
2022-11-01T14:56:58.784Z,102255.31
2022-11-01T15:02:07.397Z,102259.66
2022-11-01T15:07:38.357Z,102274.09
2022-11-01T15:13:07.181Z,102267.88
2022-11-01T15:18:18.938Z,102265.88
2022-11-01T15:23:35.133Z,102261.38
2022-11-01T15:28:43.352Z,102243.25
2022-11-01T15:34:21.095Z,102251.63
2022-11-01T15:39:29.896Z,102253.31
2022-11-01T15:44:31.876Z,102251.50
2022-11-01T15:49:46.195Z,102254.31
2022-11-01T15:54:56.763Z,102252.63
2022-11-01T16:00:06.935Z,102259.53
2022-11-01T16:05:19.801Z,102262.22
2022-11-01T16:10:30.261Z,102264.06
2022-11-01T16:15:34.599Z,102263.09
2022-11-01T16:20:41.161Z,102267.59
2022-11-01T16:25:43.248Z,102265.03
2022-11-01T16:30:53.246Z,102273.94
2022-11-01T16:35:55.161Z,102276.63
2022-11-01T16:41:02.171Z,102274.09
2022-11-01T16:46:05.227Z,102279.31
2022-11-01T16:51:09.122Z,102283.81
2022-11-01T16:56:42.759Z,102291.88
2022-11-01T17:01:46.221Z,102294.44
2022-11-01T17:06:48.929Z,102295.41
2022-11-01T17:11:51.905Z,102298.09
2022-11-01T17:16:56.478Z,102303.63
2022-11-01T17:22:02.973Z,102312.38
2022-11-01T17:27:06.034Z,102311.50
2022-11-01T17:32:09.804Z,102316.03
2022-11-01T17:37:19.924Z,102315.22
2022-11-01T17:42:22.233Z,102322.25
2022-11-01T17:47:25.209Z,102326.75
2022-11-01T17:52:27.217Z,102330.31
2022-11-01T17:57:29.155Z,102334.81
2022-11-01T18:02:32.399Z,102334.81
2022-11-01T18:07:44.357Z,102331.44
2022-11-01T18:13:24.704Z,102343.00
2022-11-01T18:19:01.889Z,102353.75
2022-11-01T18:24:16.114Z,102354.44
2022-11-01T18:29:23.726Z,102357.28
2022-11-01T18:34:42.203Z,102360.81
2022-11-01T18:39:56.071Z,102354.59
2022-11-01T18:45:04.851Z,102359.97
2022-11-01T18:50:16.718Z,102355.56
2022-11-01T18:55:18.836Z,102348.22
2022-11-01T19:00:21.046Z,102354.59
2022-11-01T19:05:23.453Z,102346.56
2022-11-01T19:10:28.493Z,102343.00
2022-11-01T19:15:30.789Z,102340.34
2022-11-01T19:20:38.895Z,102342.16
2022-11-01T19:25:43.787Z,102340.34
2022-11-01T19:30:51.532Z,102338.63
2022-11-01T19:35:56.599Z,102339.47
2022-11-01T19:40:59.024Z,102328.75
2022-11-01T19:46:01.025Z,102332.41
2022-11-01T19:51:02.979Z,102339.47
2022-11-01T19:56:07.851Z,102331.53
2022-11-01T20:01:23.023Z,102335.09
2022-11-01T20:06:29.751Z,102337.75
2022-11-01T20:11:32.928Z,102346.66
2022-11-01T20:16:35.004Z,102346.78
2022-11-01T20:21:37.021Z,102354.72
2022-11-01T20:26:39.195Z,102361.06
2022-11-01T20:31:41.307Z,102361.06
2022-11-01T20:36:46.795Z,102358.38
2022-11-01T20:41:55.113Z,102355.69
2022-11-01T20:46:57.063Z,102366.44
2022-11-01T20:52:13.431Z,102378.03
2022-11-01T20:57:28.018Z,102363.88
2022-11-01T21:02:30.791Z,102370.09
2022-11-01T21:07:34.002Z,102366.44
2022-11-01T21:12:45.709Z,102359.47
2022-11-01T21:17:47.651Z,102370.09
2022-11-01T21:22:55.529Z,102363.88
2022-11-01T21:27:57.546Z,102371.06
2022-11-01T21:32:59.810Z,102378.13
2022-11-01T21:38:02.418Z,102372.78
2022-11-01T21:43:15.775Z,102375.47
2022-11-01T21:48:30.033Z,102371.91
2022-11-01T21:53:32.071Z,102375.56
2022-11-01T21:58:34.062Z,102371.91
2022-11-01T22:03:36.100Z,102372.91
2022-11-01T22:08:38.101Z,102362.16
2022-11-01T22:13:40.063Z,102364.03
2022-11-01T22:18:42.019Z,102377.44
2022-11-01T22:23:44.582Z,102382.81
2022-11-01T22:28:46.490Z,102377.44
2022-11-01T22:33:54.556Z,102372.19
2022-11-01T22:39:01.779Z,102372.19
2022-11-01T22:44:06.687Z,102374.75
2022-11-01T22:49:24.364Z,102370.34
2022-11-01T22:54:41.493Z,102371.34
2022-11-01T23:00:20.489Z,102370.47
2022-11-01T23:05:26.408Z,102373.03
2022-11-01T23:10:34.093Z,102372.19
2022-11-01T23:15:36.840Z,102367.69
2022-11-01T23:20:41.709Z,102361.47
2022-11-01T23:25:43.899Z,102366.81
2022-11-01T23:30:48.225Z,102371.34
2022-11-01T23:35:54.485Z,102374.03
2022-11-01T23:40:57.706Z,102375.72
2022-11-01T23:46:00.743Z,102361.09
2022-11-01T23:51:02.976Z,102364.25
2022-11-01T23:56:08.528Z,102372.31
